sensor_id;sensor_type;location;lat;lon;timestamp;P1;durP1;ratioP1;P2;durP2;ratioP2
24859;SDS011;12936;52.006;4.350;2023-01-24T00:01:42;23.77;;;15.03;;
24859;SDS011;12936;52.006;4.350;2023-01-24T00:04:11;20.07;;;14.30;;
24859;SDS011;12936;52.006;4.350;2023-01-24T00:06:40;20.77;;;14.07;;
24859;SDS011;12936;52.006;4.350;2023-01-24T00:09:08;20.77;;;14.60;;
24859;SDS011;12936;52.006;4.350;2023-01-24T00:11:36;22.33;;;15.50;;
24859;SDS011;12936;52.006;4.350;2023-01-24T00:14:26;21.70;;;14.40;;
24859;SDS011;12936;52.006;4.350;2023-01-24T00:16:55;21.43;;;15.27;;
24859;SDS011;12936;52.006;4.350;2023-01-24T00:19:27;22.80;;;15.33;;
24859;SDS011;12936;52.006;4.350;2023-01-24T00:21:59;22.53;;;15.07;;
24859;SDS011;12936;52.006;4.350;2023-01-24T00:24:27;21.60;;;14.97;;
24859;SDS011;12936;52.006;4.350;2023-01-24T00:27:03;23.07;;;14.60;;
24859;SDS011;12936;52.006;4.350;2023-01-24T00:29:53;22.47;;;15.60;;
24859;SDS011;12936;52.006;4.350;2023-01-24T00:32:21;20.50;;;14.67;;
24859;SDS011;12936;52.006;4.350;2023-01-24T00:34:50;24.50;;;15.30;;
24859;SDS011;12936;52.006;4.350;2023-01-24T00:37:18;23.20;;;16.20;;
24859;SDS011;12936;52.006;4.350;2023-01-24T00:39:46;21.43;;;14.97;;
24859;SDS011;12936;52.006;4.350;2023-01-24T00:42:15;21.67;;;14.30;;
24859;SDS011;12936;52.006;4.350;2023-01-24T00:44:43;21.53;;;14.73;;
24859;SDS011;12936;52.006;4.350;2023-01-24T00:47:13;22.37;;;13.83;;
24859;SDS011;12936;52.006;4.350;2023-01-24T00:49:42;23.40;;;14.93;;
24859;SDS011;12936;52.006;4.350;2023-01-24T00:52:10;22.07;;;15.63;;
24859;SDS011;12936;52.006;4.350;2023-01-24T00:54:40;22.83;;;15.93;;
24859;SDS011;12936;52.006;4.350;2023-01-24T00:57:10;24.23;;;15.70;;
24859;SDS011;12936;52.006;4.350;2023-01-24T00:59:38;22.73;;;15.63;;
24859;SDS011;12936;52.006;4.350;2023-01-24T01:02:07;22.77;;;15.73;;
24859;SDS011;12936;52.006;4.350;2023-01-24T01:04:37;22.97;;;16.07;;
24859;SDS011;12936;52.006;4.350;2023-01-24T01:07:06;23.70;;;15.73;;
24859;SDS011;12936;52.006;4.350;2023-01-24T01:09:57;22.17;;;14.47;;
24859;SDS011;12936;52.006;4.350;2023-01-24T01:12:25;23.07;;;15.27;;
24859;SDS011;12936;52.006;4.350;2023-01-24T01:14:54;22.43;;;16.10;;
24859;SDS011;12936;52.006;4.350;2023-01-24T01:17:24;22.53;;;15.13;;
24859;SDS011;12936;52.006;4.350;2023-01-24T01:19:55;24.93;;;15.67;;
24859;SDS011;12936;52.006;4.350;2023-01-24T01:22:25;23.23;;;15.93;;
24859;SDS011;12936;52.006;4.350;2023-01-24T01:24:53;21.37;;;15.80;;
24859;SDS011;12936;52.006;4.350;2023-01-24T01:27:21;24.97;;;16.23;;
24859;SDS011;12936;52.006;4.350;2023-01-24T01:29:49;26.03;;;15.83;;
24859;SDS011;12936;52.006;4.350;2023-01-24T01:32:17;24.23;;;16.37;;
24859;SDS011;12936;52.006;4.350;2023-01-24T01:34:46;22.40;;;15.60;;
24859;SDS011;12936;52.006;4.350;2023-01-24T01:37:15;22.77;;;15.77;;
24859;SDS011;12936;52.006;4.350;2023-01-24T01:39:43;22.23;;;15.63;;
24859;SDS011;12936;52.006;4.350;2023-01-24T01:42:11;23.03;;;14.50;;
24859;SDS011;12936;52.006;4.350;2023-01-24T01:44:43;22.23;;;15.60;;
24859;SDS011;12936;52.006;4.350;2023-01-24T01:47:17;25.73;;;16.43;;
24859;SDS011;12936;52.006;4.350;2023-01-24T01:49:51;23.33;;;16.17;;
24859;SDS011;12936;52.006;4.350;2023-01-24T01:52:26;25.73;;;17.00;;
24859;SDS011;12936;52.006;4.350;2023-01-24T01:54:57;23.60;;;16.57;;
24859;SDS011;12936;52.006;4.350;2023-01-24T01:57:29;24.77;;;16.97;;
24859;SDS011;12936;52.006;4.350;2023-01-24T02:00:00;22.03;;;15.90;;
24859;SDS011;12936;52.006;4.350;2023-01-24T02:02:52;27.00;;;16.87;;
24859;SDS011;12936;52.006;4.350;2023-01-24T02:05:45;24.07;;;17.00;;
24859;SDS011;12936;52.006;4.350;2023-01-24T02:08:17;25.63;;;16.70;;
24859;SDS011;12936;52.006;4.350;2023-01-24T02:10:48;24.47;;;16.90;;
24859;SDS011;12936;52.006;4.350;2023-01-24T02:13:34;24.63;;;15.83;;
24859;SDS011;12936;52.006;4.350;2023-01-24T02:16:06;26.63;;;18.13;;
24859;SDS011;12936;52.006;4.350;2023-01-24T02:18:34;22.13;;;16.33;;
24859;SDS011;12936;52.006;4.350;2023-01-24T02:21:06;22.77;;;15.83;;
24859;SDS011;12936;52.006;4.350;2023-01-24T02:23:41;25.50;;;17.43;;
24859;SDS011;12936;52.006;4.350;2023-01-24T02:26:20;21.77;;;15.73;;
24859;SDS011;12936;52.006;4.350;2023-01-24T02:28:51;23.97;;;16.83;;
24859;SDS011;12936;52.006;4.350;2023-01-24T02:31:22;23.03;;;16.17;;
24859;SDS011;12936;52.006;4.350;2023-01-24T02:33:52;24.43;;;16.50;;
24859;SDS011;12936;52.006;4.350;2023-01-24T02:36:22;25.17;;;17.53;;
24859;SDS011;12936;52.006;4.350;2023-01-24T02:38:56;22.10;;;16.23;;
24859;SDS011;12936;52.006;4.350;2023-01-24T02:41:31;22.57;;;16.13;;
24859;SDS011;12936;52.006;4.350;2023-01-24T02:44:05;25.20;;;17.00;;
24859;SDS011;12936;52.006;4.350;2023-01-24T02:46:38;23.80;;;15.90;;
24859;SDS011;12936;52.006;4.350;2023-01-24T02:49:09;22.03;;;15.23;;
24859;SDS011;12936;52.006;4.350;2023-01-24T02:51:41;25.63;;;15.67;;
24859;SDS011;12936;52.006;4.350;2023-01-24T02:54:27;20.57;;;14.77;;
24859;SDS011;12936;52.006;4.350;2023-01-24T02:56:56;22.27;;;15.77;;
24859;SDS011;12936;52.006;4.350;2023-01-24T02:59:45;20.57;;;13.90;;
24859;SDS011;12936;52.006;4.350;2023-01-24T03:02:13;21.10;;;15.70;;
24859;SDS011;12936;52.006;4.350;2023-01-24T03:04:43;20.57;;;14.83;;
24859;SDS011;12936;52.006;4.350;2023-01-24T03:07:11;23.73;;;15.70;;
24859;SDS011;12936;52.006;4.350;2023-01-24T03:09:40;23.33;;;15.30;;
24859;SDS011;12936;52.006;4.350;2023-01-24T03:12:16;21.03;;;15.10;;
24859;SDS011;12936;52.006;4.350;2023-01-24T03:15:03;21.53;;;15.70;;
24859;SDS011;12936;52.006;4.350;2023-01-24T03:17:49;21.33;;;14.67;;
24859;SDS011;12936;52.006;4.350;2023-01-24T03:20:35;23.43;;;15.67;;
24859;SDS011;12936;52.006;4.350;2023-01-24T03:23:21;20.50;;;13.83;;
24859;SDS011;12936;52.006;4.350;2023-01-24T03:26:06;23.90;;;15.63;;
24859;SDS011;12936;52.006;4.350;2023-01-24T03:28:53;21.50;;;14.67;;
24859;SDS011;12936;52.006;4.350;2023-01-24T03:31:38;23.13;;;15.20;;
24859;SDS011;12936;52.006;4.350;2023-01-24T03:34:24;21.40;;;15.17;;
24859;SDS011;12936;52.006;4.350;2023-01-24T03:36:59;23.13;;;15.80;;
24859;SDS011;12936;52.006;4.350;2023-01-24T03:39:27;25.77;;;17.93;;
24859;SDS011;12936;52.006;4.350;2023-01-24T03:42:27;22.37;;;15.63;;
24859;SDS011;12936;52.006;4.350;2023-01-24T03:44:57;22.90;;;15.90;;
24859;SDS011;12936;52.006;4.350;2023-01-24T03:47:26;24.87;;;16.63;;
24859;SDS011;12936;52.006;4.350;2023-01-24T03:49:54;25.83;;;16.97;;
24859;SDS011;12936;52.006;4.350;2023-01-24T03:52:40;23.80;;;15.87;;
24859;SDS011;12936;52.006;4.350;2023-01-24T03:55:09;24.43;;;16.70;;
24859;SDS011;12936;52.006;4.350;2023-01-24T03:57:38;23.70;;;16.00;;
24859;SDS011;12936;52.006;4.350;2023-01-24T04:00:08;25.20;;;17.77;;
24859;SDS011;12936;52.006;4.350;2023-01-24T04:02:37;26.73;;;16.97;;
24859;SDS011;12936;52.006;4.350;2023-01-24T04:05:06;23.97;;;16.67;;
24859;SDS011;12936;52.006;4.350;2023-01-24T04:07:41;23.00;;;15.83;;
24859;SDS011;12936;52.006;4.350;2023-01-24T04:10:09;24.10;;;16.17;;
24859;SDS011;12936;52.006;4.350;2023-01-24T04:12:38;21.10;;;14.63;;
24859;SDS011;12936;52.006;4.350;2023-01-24T04:15:09;23.97;;;16.43;;
24859;SDS011;12936;52.006;4.350;2023-01-24T04:17:47;23.77;;;15.67;;
24859;SDS011;12936;52.006;4.350;2023-01-24T04:20:16;22.13;;;15.73;;
24859;SDS011;12936;52.006;4.350;2023-01-24T04:22:45;23.30;;;16.10;;
24859;SDS011;12936;52.006;4.350;2023-01-24T04:25:14;24.20;;;16.47;;
24859;SDS011;12936;52.006;4.350;2023-01-24T04:27:43;23.33;;;16.30;;
24859;SDS011;12936;52.006;4.350;2023-01-24T04:30:16;23.87;;;16.37;;
24859;SDS011;12936;52.006;4.350;2023-01-24T04:32:45;23.63;;;16.50;;
24859;SDS011;12936;52.006;4.350;2023-01-24T04:35:15;26.73;;;17.17;;
24859;SDS011;12936;52.006;4.350;2023-01-24T04:37:50;24.73;;;17.03;;
24859;SDS011;12936;52.006;4.350;2023-01-24T04:40:19;25.73;;;17.40;;
24859;SDS011;12936;52.006;4.350;2023-01-24T04:42:50;25.53;;;16.80;;
24859;SDS011;12936;52.006;4.350;2023-01-24T04:45:22;24.70;;;16.97;;
24859;SDS011;12936;52.006;4.350;2023-01-24T04:47:50;27.97;;;17.63;;
24859;SDS011;12936;52.006;4.350;2023-01-24T04:50:20;26.43;;;18.27;;
24859;SDS011;12936;52.006;4.350;2023-01-24T04:52:51;25.40;;;17.27;;
24859;SDS011;12936;52.006;4.350;2023-01-24T04:55:39;27.43;;;17.80;;
24859;SDS011;12936;52.006;4.350;2023-01-24T04:58:08;26.20;;;17.63;;
24859;SDS011;12936;52.006;4.350;2023-01-24T05:00:47;23.53;;;17.73;;
24859;SDS011;12936;52.006;4.350;2023-01-24T05:03:15;27.17;;;17.90;;
24859;SDS011;12936;52.006;4.350;2023-01-24T05:05:49;23.50;;;16.50;;
24859;SDS011;12936;52.006;4.350;2023-01-24T05:08:18;25.27;;;17.33;;
24859;SDS011;12936;52.006;4.350;2023-01-24T05:10:47;24.63;;;17.03;;
24859;SDS011;12936;52.006;4.350;2023-01-24T05:13:15;25.57;;;18.10;;
24859;SDS011;12936;52.006;4.350;2023-01-24T05:15:46;23.70;;;16.30;;
24859;SDS011;12936;52.006;4.350;2023-01-24T05:18:14;22.43;;;15.53;;
24859;SDS011;12936;52.006;4.350;2023-01-24T05:20:43;26.40;;;17.33;;
24859;SDS011;12936;52.006;4.350;2023-01-24T05:23:14;25.17;;;17.80;;
24859;SDS011;12936;52.006;4.350;2023-01-24T05:25:42;25.13;;;17.23;;
24859;SDS011;12936;52.006;4.350;2023-01-24T05:28:10;24.60;;;17.00;;
24859;SDS011;12936;52.006;4.350;2023-01-24T05:30:39;24.53;;;17.23;;
24859;SDS011;12936;52.006;4.350;2023-01-24T05:33:08;26.73;;;17.47;;
24859;SDS011;12936;52.006;4.350;2023-01-24T05:35:36;26.03;;;18.20;;
24859;SDS011;12936;52.006;4.350;2023-01-24T05:38:06;25.33;;;16.80;;
24859;SDS011;12936;52.006;4.350;2023-01-24T05:40:34;24.53;;;17.27;;
24859;SDS011;12936;52.006;4.350;2023-01-24T05:43:02;23.67;;;16.60;;
24859;SDS011;12936;52.006;4.350;2023-01-24T05:45:30;28.97;;;18.90;;
24859;SDS011;12936;52.006;4.350;2023-01-24T05:47:58;26.30;;;17.70;;
24859;SDS011;12936;52.006;4.350;2023-01-24T05:50:27;26.37;;;16.87;;
24859;SDS011;12936;52.006;4.350;2023-01-24T05:52:55;27.17;;;18.50;;
24859;SDS011;12936;52.006;4.350;2023-01-24T05:55:23;25.03;;;16.33;;
24859;SDS011;12936;52.006;4.350;2023-01-24T05:57:51;26.17;;;17.27;;
24859;SDS011;12936;52.006;4.350;2023-01-24T06:00:19;25.47;;;17.20;;
24859;SDS011;12936;52.006;4.350;2023-01-24T06:02:48;24.37;;;16.73;;
24859;SDS011;12936;52.006;4.350;2023-01-24T06:05:16;25.33;;;16.67;;
24859;SDS011;12936;52.006;4.350;2023-01-24T06:07:46;23.60;;;16.30;;
24859;SDS011;12936;52.006;4.350;2023-01-24T06:10:15;26.33;;;17.03;;
24859;SDS011;12936;52.006;4.350;2023-01-24T06:12:43;23.73;;;16.40;;
24859;SDS011;12936;52.006;4.350;2023-01-24T06:15:11;22.97;;;15.43;;
24859;SDS011;12936;52.006;4.350;2023-01-24T06:17:39;26.63;;;16.93;;
24859;SDS011;12936;52.006;4.350;2023-01-24T06:20:09;26.77;;;18.40;;
24859;SDS011;12936;52.006;4.350;2023-01-24T06:22:41;24.70;;;16.73;;
24859;SDS011;12936;52.006;4.350;2023-01-24T06:25:18;21.93;;;15.07;;
24859;SDS011;12936;52.006;4.350;2023-01-24T06:27:49;22.97;;;16.63;;
24859;SDS011;12936;52.006;4.350;2023-01-24T06:30:17;24.43;;;16.50;;
24859;SDS011;12936;52.006;4.350;2023-01-24T06:32:52;23.43;;;15.97;;
24859;SDS011;12936;52.006;4.350;2023-01-24T06:35:31;22.30;;;15.10;;
24859;SDS011;12936;52.006;4.350;2023-01-24T06:38:14;22.07;;;15.80;;
24859;SDS011;12936;52.006;4.350;2023-01-24T06:40:47;22.53;;;15.33;;
24859;SDS011;12936;52.006;4.350;2023-01-24T06:43:20;21.33;;;16.33;;
24859;SDS011;12936;52.006;4.350;2023-01-24T06:45:48;25.10;;;16.43;;
24859;SDS011;12936;52.006;4.350;2023-01-24T06:48:16;24.73;;;16.20;;
24859;SDS011;12936;52.006;4.350;2023-01-24T06:50:45;22.07;;;15.73;;
24859;SDS011;12936;52.006;4.350;2023-01-24T06:53:13;24.30;;;15.87;;
24859;SDS011;12936;52.006;4.350;2023-01-24T06:55:43;21.40;;;14.70;;
24859;SDS011;12936;52.006;4.350;2023-01-24T06:58:13;21.53;;;15.07;;
24859;SDS011;12936;52.006;4.350;2023-01-24T07:00:41;22.43;;;15.73;;
24859;SDS011;12936;52.006;4.350;2023-01-24T07:03:09;23.30;;;15.97;;
24859;SDS011;12936;52.006;4.350;2023-01-24T07:05:38;22.30;;;15.30;;
24859;SDS011;12936;52.006;4.350;2023-01-24T07:08:06;22.20;;;14.23;;
24859;SDS011;12936;52.006;4.350;2023-01-24T07:10:35;22.73;;;15.60;;
24859;SDS011;12936;52.006;4.350;2023-01-24T07:13:05;21.50;;;15.17;;
24859;SDS011;12936;52.006;4.350;2023-01-24T07:15:34;26.57;;;15.83;;
24859;SDS011;12936;52.006;4.350;2023-01-24T07:18:06;23.50;;;16.10;;
24859;SDS011;12936;52.006;4.350;2023-01-24T07:20:38;24.60;;;15.40;;
24859;SDS011;12936;52.006;4.350;2023-01-24T07:23:11;21.10;;;14.57;;
24859;SDS011;12936;52.006;4.350;2023-01-24T07:25:46;21.60;;;14.57;;
24859;SDS011;12936;52.006;4.350;2023-01-24T07:28:15;25.60;;;16.97;;
24859;SDS011;12936;52.006;4.350;2023-01-24T07:30:45;24.10;;;15.83;;
24859;SDS011;12936;52.006;4.350;2023-01-24T07:33:14;23.83;;;15.63;;
24859;SDS011;12936;52.006;4.350;2023-01-24T07:35:42;22.23;;;15.40;;
24859;SDS011;12936;52.006;4.350;2023-01-24T07:38:10;23.63;;;15.80;;
24859;SDS011;12936;52.006;4.350;2023-01-24T07:40:39;23.83;;;15.13;;
24859;SDS011;12936;52.006;4.350;2023-01-24T07:43:08;22.73;;;15.30;;
24859;SDS011;12936;52.006;4.350;2023-01-24T07:45:36;21.90;;;15.10;;
24859;SDS011;12936;52.006;4.350;2023-01-24T07:48:06;26.67;;;16.23;;
24859;SDS011;12936;52.006;4.350;2023-01-24T07:50:34;22.50;;;15.47;;
24859;SDS011;12936;52.006;4.350;2023-01-24T07:53:03;24.07;;;16.23;;
24859;SDS011;12936;52.006;4.350;2023-01-24T07:55:31;24.80;;;15.70;;
24859;SDS011;12936;52.006;4.350;2023-01-24T07:58:00;25.03;;;16.20;;
24859;SDS011;12936;52.006;4.350;2023-01-24T08:00:29;24.17;;;16.40;;
24859;SDS011;12936;52.006;4.350;2023-01-24T08:02:57;20.60;;;13.27;;
24859;SDS011;12936;52.006;4.350;2023-01-24T08:05:27;20.97;;;13.30;;
24859;SDS011;12936;52.006;4.350;2023-01-24T08:07:55;27.43;;;16.43;;
24859;SDS011;12936;52.006;4.350;2023-01-24T08:10:23;25.37;;;16.00;;
24859;SDS011;12936;52.006;4.350;2023-01-24T08:12:51;28.63;;;16.43;;
24859;SDS011;12936;52.006;4.350;2023-01-24T08:15:19;23.43;;;16.07;;
24859;SDS011;12936;52.006;4.350;2023-01-24T08:17:47;24.20;;;15.93;;
24859;SDS011;12936;52.006;4.350;2023-01-24T08:20:15;24.60;;;15.87;;
24859;SDS011;12936;52.006;4.350;2023-01-24T08:22:45;24.27;;;15.50;;
24859;SDS011;12936;52.006;4.350;2023-01-24T08:25:23;29.73;;;16.07;;
24859;SDS011;12936;52.006;4.350;2023-01-24T08:27:51;24.63;;;17.83;;
24859;SDS011;12936;52.006;4.350;2023-01-24T08:30:19;23.30;;;15.20;;
24859;SDS011;12936;52.006;4.350;2023-01-24T08:32:48;24.43;;;16.77;;
24859;SDS011;12936;52.006;4.350;2023-01-24T08:35:16;25.70;;;17.03;;
24859;SDS011;12936;52.006;4.350;2023-01-24T08:37:46;23.33;;;15.53;;
24859;SDS011;12936;52.006;4.350;2023-01-24T08:40:14;24.47;;;16.80;;
24859;SDS011;12936;52.006;4.350;2023-01-24T08:42:42;28.30;;;18.07;;
24859;SDS011;12936;52.006;4.350;2023-01-24T08:45:10;25.60;;;17.57;;
24859;SDS011;12936;52.006;4.350;2023-01-24T08:47:38;26.40;;;16.80;;
24859;SDS011;12936;52.006;4.350;2023-01-24T08:50:07;23.67;;;15.57;;
24859;SDS011;12936;52.006;4.350;2023-01-24T08:52:36;24.97;;;17.30;;
24859;SDS011;12936;52.006;4.350;2023-01-24T08:55:05;25.53;;;17.10;;
24859;SDS011;12936;52.006;4.350;2023-01-24T08:57:34;25.20;;;17.47;;
24859;SDS011;12936;52.006;4.350;2023-01-24T09:00:02;26.77;;;16.20;;
24859;SDS011;12936;52.006;4.350;2023-01-24T09:02:31;27.90;;;17.10;;
24859;SDS011;12936;52.006;4.350;2023-01-24T09:05:03;28.17;;;16.50;;
24859;SDS011;12936;52.006;4.350;2023-01-24T09:07:31;27.63;;;18.03;;
24859;SDS011;12936;52.006;4.350;2023-01-24T09:10:00;25.63;;;17.33;;
24859;SDS011;12936;52.006;4.350;2023-01-24T09:12:30;27.27;;;16.67;;
24859;SDS011;12936;52.006;4.350;2023-01-24T09:14:58;29.10;;;18.60;;
24859;SDS011;12936;52.006;4.350;2023-01-24T09:17:26;29.37;;;18.80;;
24859;SDS011;12936;52.006;4.350;2023-01-24T09:19:54;23.43;;;16.53;;
24859;SDS011;12936;52.006;4.350;2023-01-24T09:22:22;26.60;;;17.80;;
24859;SDS011;12936;52.006;4.350;2023-01-24T09:24:50;23.50;;;16.17;;
24859;SDS011;12936;52.006;4.350;2023-01-24T09:27:18;27.10;;;18.20;;
24859;SDS011;12936;52.006;4.350;2023-01-24T09:29:48;26.27;;;17.40;;
24859;SDS011;12936;52.006;4.350;2023-01-24T09:32:16;24.77;;;17.07;;
24859;SDS011;12936;52.006;4.350;2023-01-24T09:34:44;27.07;;;17.50;;
24859;SDS011;12936;52.006;4.350;2023-01-24T09:37:15;27.73;;;17.10;;
24859;SDS011;12936;52.006;4.350;2023-01-24T09:39:44;25.23;;;16.90;;
24859;SDS011;12936;52.006;4.350;2023-01-24T09:42:13;26.87;;;16.60;;
24859;SDS011;12936;52.006;4.350;2023-01-24T09:44:55;29.20;;;17.83;;
24859;SDS011;12936;52.006;4.350;2023-01-24T09:47:37;26.53;;;16.10;;
24859;SDS011;12936;52.006;4.350;2023-01-24T09:50:10;26.77;;;16.97;;
24859;SDS011;12936;52.006;4.350;2023-01-24T09:52:43;29.97;;;18.97;;
24859;SDS011;12936;52.006;4.350;2023-01-24T09:55:14;26.57;;;17.80;;
24859;SDS011;12936;52.006;4.350;2023-01-24T09:57:50;26.53;;;16.80;;
24859;SDS011;12936;52.006;4.350;2023-01-24T10:00:24;23.73;;;15.77;;
24859;SDS011;12936;52.006;4.350;2023-01-24T10:02:54;26.43;;;17.63;;
24859;SDS011;12936;52.006;4.350;2023-01-24T10:05:27;27.83;;;17.17;;
24859;SDS011;12936;52.006;4.350;2023-01-24T10:08:05;25.43;;;17.80;;
24859;SDS011;12936;52.006;4.350;2023-01-24T10:10:43;27.33;;;17.77;;
24859;SDS011;12936;52.006;4.350;2023-01-24T10:13:22;26.97;;;16.50;;
24859;SDS011;12936;52.006;4.350;2023-01-24T10:16:15;29.13;;;16.97;;
24859;SDS011;12936;52.006;4.350;2023-01-24T10:18:57;25.30;;;16.03;;
24859;SDS011;12936;52.006;4.350;2023-01-24T10:21:45;27.33;;;17.13;;
24859;SDS011;12936;52.006;4.350;2023-01-24T10:24:27;25.17;;;16.67;;
24859;SDS011;12936;52.006;4.350;2023-01-24T10:26:58;28.80;;;17.63;;
24859;SDS011;12936;52.006;4.350;2023-01-24T10:29:30;28.13;;;16.60;;
24859;SDS011;12936;52.006;4.350;2023-01-24T10:32:04;31.80;;;18.47;;
24859;SDS011;12936;52.006;4.350;2023-01-24T10:34:38;27.70;;;17.50;;
24859;SDS011;12936;52.006;4.350;2023-01-24T10:37:12;27.67;;;18.73;;
24859;SDS011;12936;52.006;4.350;2023-01-24T10:39:46;28.60;;;17.53;;
24859;SDS011;12936;52.006;4.350;2023-01-24T10:42:18;28.93;;;18.30;;
24859;SDS011;12936;52.006;4.350;2023-01-24T10:44:49;28.47;;;19.17;;
24859;SDS011;12936;52.006;4.350;2023-01-24T10:50:14;27.23;;;16.60;;
24859;SDS011;12936;52.006;4.350;2023-01-24T10:52:43;28.70;;;18.27;;
24859;SDS011;12936;52.006;4.350;2023-01-24T10:55:23;26.77;;;16.57;;
24859;SDS011;12936;52.006;4.350;2023-01-24T10:57:57;27.30;;;16.33;;
24859;SDS011;12936;52.006;4.350;2023-01-24T11:00:27;25.20;;;15.57;;
24859;SDS011;12936;52.006;4.350;2023-01-24T11:03:02;26.77;;;16.77;;
24859;SDS011;12936;52.006;4.350;2023-01-24T11:05:36;27.63;;;17.70;;
24859;SDS011;12936;52.006;4.350;2023-01-24T11:08:15;25.63;;;16.53;;
24859;SDS011;12936;52.006;4.350;2023-01-24T11:10:46;27.83;;;18.20;;
24859;SDS011;12936;52.006;4.350;2023-01-24T11:13:29;31.40;;;18.10;;
24859;SDS011;12936;52.006;4.350;2023-01-24T11:16:01;29.23;;;19.13;;
24859;SDS011;12936;52.006;4.350;2023-01-24T11:18:33;27.63;;;17.37;;
24859;SDS011;12936;52.006;4.350;2023-01-24T11:21:04;28.93;;;18.07;;
24859;SDS011;12936;52.006;4.350;2023-01-24T11:23:36;29.83;;;16.63;;
24859;SDS011;12936;52.006;4.350;2023-01-24T11:26:05;28.97;;;18.03;;
24859;SDS011;12936;52.006;4.350;2023-01-24T11:28:48;29.67;;;19.27;;
24859;SDS011;12936;52.006;4.350;2023-01-24T11:31:26;28.63;;;17.97;;
24859;SDS011;12936;52.006;4.350;2023-01-24T11:34:09;28.33;;;17.17;;
24859;SDS011;12936;52.006;4.350;2023-01-24T11:37:05;25.53;;;15.73;;
24859;SDS011;12936;52.006;4.350;2023-01-24T11:39:45;25.63;;;16.87;;
24859;SDS011;12936;52.006;4.350;2023-01-24T11:42:25;27.40;;;18.13;;
24859;SDS011;12936;52.006;4.350;2023-01-24T11:45:14;25.70;;;15.97;;
24859;SDS011;12936;52.006;4.350;2023-01-24T11:47:57;26.30;;;16.70;;
24859;SDS011;12936;52.006;4.350;2023-01-24T11:50:43;28.33;;;18.37;;
24859;SDS011;12936;52.006;4.350;2023-01-24T11:56:29;31.53;;;17.67;;
24859;SDS011;12936;52.006;4.350;2023-01-24T11:59:19;26.10;;;17.30;;
24859;SDS011;12936;52.006;4.350;2023-01-24T12:01:58;27.83;;;18.47;;
24859;SDS011;12936;52.006;4.350;2023-01-24T12:07:41;30.80;;;18.40;;
24859;SDS011;12936;52.006;4.350;2023-01-24T12:10:21;28.33;;;17.40;;
24859;SDS011;12936;52.006;4.350;2023-01-24T12:12:59;28.97;;;19.27;;
24859;SDS011;12936;52.006;4.350;2023-01-24T12:15:37;28.77;;;18.10;;
24859;SDS011;12936;52.006;4.350;2023-01-24T12:18:19;25.53;;;16.97;;
24859;SDS011;12936;52.006;4.350;2023-01-24T12:21:00;27.97;;;17.83;;
24859;SDS011;12936;52.006;4.350;2023-01-24T12:23:35;30.83;;;18.67;;
24859;SDS011;12936;52.006;4.350;2023-01-24T12:26:13;29.40;;;17.80;;
24859;SDS011;12936;52.006;4.350;2023-01-24T12:28:46;28.33;;;17.20;;
24859;SDS011;12936;52.006;4.350;2023-01-24T12:31:19;30.03;;;17.60;;
24859;SDS011;12936;52.006;4.350;2023-01-24T12:33:55;30.17;;;17.83;;
24859;SDS011;12936;52.006;4.350;2023-01-24T12:36:33;28.37;;;18.33;;
24859;SDS011;12936;52.006;4.350;2023-01-24T12:39:11;26.73;;;16.97;;
24859;SDS011;12936;52.006;4.350;2023-01-24T12:41:43;30.90;;;17.77;;
24859;SDS011;12936;52.006;4.350;2023-01-24T12:44:23;28.63;;;18.27;;
24859;SDS011;12936;52.006;4.350;2023-01-24T12:47:01;30.23;;;18.17;;
24859;SDS011;12936;52.006;4.350;2023-01-24T12:49:44;26.77;;;17.93;;
24859;SDS011;12936;52.006;4.350;2023-01-24T12:52:20;30.50;;;17.53;;
24859;SDS011;12936;52.006;4.350;2023-01-24T12:54:55;26.50;;;16.97;;
24859;SDS011;12936;52.006;4.350;2023-01-24T12:57:30;28.60;;;18.53;;
24859;SDS011;12936;52.006;4.350;2023-01-24T13:00:08;28.60;;;17.67;;
24859;SDS011;12936;52.006;4.350;2023-01-24T13:02:49;28.87;;;18.13;;
24859;SDS011;12936;52.006;4.350;2023-01-24T13:05:37;28.03;;;17.40;;
24859;SDS011;12936;52.006;4.350;2023-01-24T13:08:13;33.90;;;17.10;;
24859;SDS011;12936;52.006;4.350;2023-01-24T13:10:52;27.03;;;17.60;;
24859;SDS011;12936;52.006;4.350;2023-01-24T13:13:30;27.87;;;17.10;;
24859;SDS011;12936;52.006;4.350;2023-01-24T13:16:09;28.70;;;17.80;;
24859;SDS011;12936;52.006;4.350;2023-01-24T13:18:52;28.13;;;18.53;;
24859;SDS011;12936;52.006;4.350;2023-01-24T13:21:28;30.40;;;18.70;;
24859;SDS011;12936;52.006;4.350;2023-01-24T13:27:16;28.50;;;18.07;;
24859;SDS011;12936;52.006;4.350;2023-01-24T13:30:05;30.50;;;18.03;;
24859;SDS011;12936;52.006;4.350;2023-01-24T13:32:46;24.60;;;16.33;;
24859;SDS011;12936;52.006;4.350;2023-01-24T13:35:16;25.83;;;16.93;;
24859;SDS011;12936;52.006;4.350;2023-01-24T13:37:50;27.13;;;16.43;;
24859;SDS011;12936;52.006;4.350;2023-01-24T13:40:23;27.70;;;17.03;;
24859;SDS011;12936;52.006;4.350;2023-01-24T13:42:56;26.83;;;16.30;;
24859;SDS011;12936;52.006;4.350;2023-01-24T13:45:41;24.93;;;16.60;;
24859;SDS011;12936;52.006;4.350;2023-01-24T13:57:09;26.00;;;16.13;;
24859;SDS011;12936;52.006;4.350;2023-01-24T13:59:58;32.07;;;16.47;;
24859;SDS011;12936;52.006;4.350;2023-01-24T14:02:41;29.73;;;16.77;;
24859;SDS011;12936;52.006;4.350;2023-01-24T14:05:32;24.43;;;14.87;;
24859;SDS011;12936;52.006;4.350;2023-01-24T14:13:53;27.50;;;16.60;;
24859;SDS011;12936;52.006;4.350;2023-01-24T14:19:39;27.70;;;15.90;;
24859;SDS011;12936;52.006;4.350;2023-01-24T14:22:18;26.80;;;16.60;;
24859;SDS011;12936;52.006;4.350;2023-01-24T14:24:53;25.67;;;16.10;;
24859;SDS011;12936;52.006;4.350;2023-01-24T14:27:26;28.13;;;17.77;;
24859;SDS011;12936;52.006;4.350;2023-01-24T14:29:59;29.07;;;16.60;;
24859;SDS011;12936;52.006;4.350;2023-01-24T14:32:38;28.97;;;17.57;;
24859;SDS011;12936;52.006;4.350;2023-01-24T14:35:16;28.00;;;17.00;;
24859;SDS011;12936;52.006;4.350;2023-01-24T14:37:48;28.27;;;17.10;;
24859;SDS011;12936;52.006;4.350;2023-01-24T14:40:18;26.17;;;16.50;;
24859;SDS011;12936;52.006;4.350;2023-01-24T14:42:48;25.97;;;16.27;;
24859;SDS011;12936;52.006;4.350;2023-01-24T14:45:19;26.70;;;16.43;;
24859;SDS011;12936;52.006;4.350;2023-01-24T14:47:50;30.03;;;16.53;;
24859;SDS011;12936;52.006;4.350;2023-01-24T14:50:21;27.70;;;16.47;;
24859;SDS011;12936;52.006;4.350;2023-01-24T14:52:51;27.83;;;16.47;;
24859;SDS011;12936;52.006;4.350;2023-01-24T14:58:14;28.67;;;17.10;;
24859;SDS011;12936;52.006;4.350;2023-01-24T15:00:43;27.37;;;16.27;;
24859;SDS011;12936;52.006;4.350;2023-01-24T15:03:16;26.13;;;16.40;;
24859;SDS011;12936;52.006;4.350;2023-01-24T15:05:55;27.10;;;17.17;;
24859;SDS011;12936;52.006;4.350;2023-01-24T15:08:26;24.47;;;15.67;;
24859;SDS011;12936;52.006;4.350;2023-01-24T15:10:57;31.13;;;16.57;;
24859;SDS011;12936;52.006;4.350;2023-01-24T15:13:29;29.03;;;17.20;;
24859;SDS011;12936;52.006;4.350;2023-01-24T15:16:01;28.03;;;16.93;;
24859;SDS011;12936;52.006;4.350;2023-01-24T15:18:34;28.00;;;17.33;;
24859;SDS011;12936;52.006;4.350;2023-01-24T15:21:16;29.13;;;16.53;;
24859;SDS011;12936;52.006;4.350;2023-01-24T15:23:51;27.30;;;16.27;;
24859;SDS011;12936;52.006;4.350;2023-01-24T15:26:30;25.83;;;16.00;;
24859;SDS011;12936;52.006;4.350;2023-01-24T15:32:21;25.47;;;15.30;;